Time;durP1;ratioP1;P1;durP2;ratioP2;P2;SDS_P1;SDS_P2;PMS_P1;PMS_P2;Temp;Humidity;BMP_temperature;BMP_pressure;BME280_temperature;BME280_humidity;BME280_pressure;Samples;Min_cycle;Max_cycle;Signal;HPM_P1;HPM_P2
2022/03/21 00:00:34;;;;;;;12.35;8.45;;;;;;;;;;6247632;23;20586;-65
2022/03/21 00:03:00;;;;;;;15.40;8.50;;;;;;;;;;6247230;23;20159;-65
2022/03/21 00:05:29;;;;;;;13.07;8.48;;;;;;;;;;6247554;23;20140;-65
2022/03/21 00:07:55;;;;;;;15.65;8.95;;;;;;;;;;6247157;23;20147;-65
2022/03/21 00:10:21;;;;;;;12.82;8.68;;;;;;;;;;6247113;23;20145;-65
2022/03/21 00:12:49;;;;;;;13.93;8.68;;;;;;;;;;6246632;23;20476;-65
2022/03/21 00:15:15;;;;;;;18.67;9.48;;;;;;;;;;6247420;23;20144;-65
2022/03/21 00:17:41;;;;;;;14.65;9.07;;;;;;;;;;6247361;23;20188;-64
2022/03/21 00:20:09;;;;;;;14.10;8.80;;;;;;;;;;6247115;23;20163;-64
2022/03/21 00:22:35;;;;;;;14.32;8.52;;;;;;;;;;6246887;23;20215;-64
2022/03/21 00:25:01;;;;;;;12.98;8.00;;;;;;;;;;6247181;23;20129;-64
2022/03/21 00:27:26;;;;;;;11.95;8.80;;;;;;;;;;6247212;23;20497;-65
2022/03/21 00:29:52;;;;;;;13.80;8.90;;;;;;;;;;6247033;23;20553;-64
2022/03/21 00:32:18;;;;;;;13.30;8.60;;;;;;;;;;6247971;23;20143;-64
2022/03/21 00:34:45;;;;;;;14.68;8.95;;;;;;;;;;6247127;23;20144;-64
2022/03/21 00:37:12;;;;;;;13.73;8.43;;;;;;;;;;6247106;23;20168;-64
2022/03/21 00:39:40;;;;;;;12.93;8.82;;;;;;;;;;6247623;23;20175;-65
2022/03/21 00:42:06;;;;;;;12.50;8.52;;;;;;;;;;6247158;23;20482;-65
2022/03/21 00:44:32;;;;;;;12.57;8.98;;;;;;;;;;6246744;23;20161;-63
2022/03/21 00:46:58;;;;;;;13.98;8.48;;;;;;;;;;6247099;23;20155;-64
2022/03/21 00:49:24;;;;;;;11.88;8.32;;;;;;;;;;6246931;23;20148;-64
2022/03/21 00:51:50;;;;;;;13.02;8.13;;;;;;;;;;6246803;23;20619;-64
2022/03/21 00:54:16;;;;;;;12.20;8.43;;;;;;;;;;6247387;23;20153;-64
2022/03/21 00:56:42;;;;;;;13.38;8.63;;;;;;;;;;6246903;23;20144;-64
2022/03/21 00:59:08;;;;;;;11.77;8.75;;;;;;;;;;6247070;23;20474;-64
2022/03/21 01:01:34;;;;;;;14.07;8.75;;;;;;;;;;6247618;23;20297;-64
2022/03/21 01:04:00;;;;;;;13.98;8.55;;;;;;;;;;6247229;23;20140;-64
2022/03/21 01:06:26;;;;;;;16.45;9.02;;;;;;;;;;6246920;23;20136;-64
2022/03/21 01:08:52;;;;;;;14.40;8.65;;;;;;;;;;6246627;23;20140;-65
2022/03/21 01:11:18;;;;;;;14.07;8.55;;;;;;;;;;6247033;23;20156;-65
2022/03/21 01:13:43;;;;;;;14.60;8.75;;;;;;;;;;6247610;23;20179;-65
2022/03/21 01:16:09;;;;;;;13.00;8.48;;;;;;;;;;6247298;23;20144;-64
2022/03/21 01:18:36;;;;;;;13.57;8.77;;;;;;;;;;6248848;23;20176;-65
2022/03/21 01:21:02;;;;;;;16.98;8.90;;;;;;;;;;6250054;23;20140;-65
2022/03/21 01:23:28;;;;;;;14.38;8.90;;;;;;;;;;6249919;23;20152;-64
2022/03/21 01:25:54;;;;;;;20.75;9.38;;;;;;;;;;6251237;23;20140;-65
2022/03/21 01:28:20;;;;;;;13.65;8.88;;;;;;;;;;6256589;23;20148;-65
2022/03/21 01:30:46;;;;;;;15.82;9.18;;;;;;;;;;6259438;23;20152;-65
2022/03/21 01:33:12;;;;;;;14.77;8.85;;;;;;;;;;6259809;23;20223;-65
2022/03/21 01:35:37;;;;;;;14.32;8.77;;;;;;;;;;6260138;23;20186;-65
2022/03/21 01:38:03;;;;;;;13.43;8.15;;;;;;;;;;6260281;23;20492;-64
2022/03/21 01:40:29;;;;;;;15.40;8.95;;;;;;;;;;6260983;23;20144;-65
2022/03/21 01:42:55;;;;;;;14.05;8.90;;;;;;;;;;6266034;23;20147;-65
2022/03/21 01:45:21;;;;;;;13.95;9.07;;;;;;;;;;6266187;23;20136;-65
2022/03/21 01:47:47;;;;;;;13.35;9.05;;;;;;;;;;6265588;23;20155;-65
2022/03/21 01:50:14;;;;;;;13.35;8.73;;;;;;;;;;6266025;23;20172;-65
2022/03/21 01:52:42;;;;;;;11.90;8.25;;;;;;;;;;6269179;23;20145;-65
2022/03/21 01:57:53;;;;;;;17.33;9.80;;;;;;;;;;6267354;23;20236;-65
2022/03/21 02:00:18;;;;;;;14.50;9.48;;;;;;;;;;6267114;23;20140;-65
2022/03/21 02:02:44;;;;;;;14.18;9.27;;;;;;;;;;6263754;23;20140;-65
2022/03/21 02:05:11;;;;;;;16.40;8.90;;;;;;;;;;6234210;23;20144;-65
2022/03/21 02:07:37;;;;;;;14.20;9.30;;;;;;;;;;6246102;23;20715;-65
2022/03/21 02:10:04;;;;;;;13.38;9.05;;;;;;;;;;6246472;23;20144;-64
2022/03/21 02:12:30;;;;;;;15.27;8.95;;;;;;;;;;6246407;23;20418;-64
2022/03/21 02:14:56;;;;;;;16.20;8.55;;;;;;;;;;6246245;23;20144;-64
2022/03/21 02:17:23;;;;;;;17.20;8.23;;;;;;;;;;6246281;23;20168;-64
2022/03/21 02:19:49;;;;;;;15.07;9.30;;;;;;;;;;6246580;23;20417;-64
2022/03/21 02:22:20;;;;;;;16.30;10.20;;;;;;;;;;6246325;23;20141;-65
2022/03/21 02:25:04;;;;;;;17.40;9.43;;;;;;;;;;6246279;23;20133;-64
2022/03/21 02:27:31;;;;;;;19.90;10.10;;;;;;;;;;6246626;23;20156;-65
2022/03/21 02:29:58;;;;;;;12.63;8.98;;;;;;;;;;6246118;23;20213;-65
2022/03/21 02:32:25;;;;;;;14.55;9.00;;;;;;;;;;6246373;23;20148;-64
2022/03/21 02:34:51;;;;;;;14.40;9.80;;;;;;;;;;6246081;23;20141;-64
2022/03/21 02:37:18;;;;;;;15.40;9.48;;;;;;;;;;6248195;23;20234;-64
2022/03/21 02:39:45;;;;;;;14.05;8.98;;;;;;;;;;6247750;23;20183;-64
2022/03/21 02:42:11;;;;;;;13.65;8.68;;;;;;;;;;6247960;23;20576;-64
2022/03/21 02:44:37;;;;;;;17.92;9.25;;;;;;;;;;6247802;23;20147;-64
2022/03/21 02:47:04;;;;;;;15.95;10.32;;;;;;;;;;6248080;23;20147;-64
2022/03/21 02:49:30;;;;;;;15.48;9.23;;;;;;;;;;6247879;23;20194;-65
2022/03/21 02:51:59;;;;;;;16.85;9.93;;;;;;;;;;6247900;23;20552;-65
2022/03/21 02:54:25;;;;;;;16.25;9.55;;;;;;;;;;6247856;23;20144;-65
2022/03/21 02:56:51;;;;;;;14.27;8.85;;;;;;;;;;6247884;23;20198;-65
2022/03/21 02:59:18;;;;;;;14.32;9.13;;;;;;;;;;6247733;23;20483;-65
2022/03/21 03:01:44;;;;;;;17.85;10.13;;;;;;;;;;6248425;23;20144;-65
2022/03/21 03:04:09;;;;;;;15.52;9.23;;;;;;;;;;6248151;23;20145;-65
2022/03/21 03:06:39;;;;;;;13.48;9.02;;;;;;;;;;6247804;23;20147;-64
2022/03/21 03:09:06;;;;;;;16.00;10.23;;;;;;;;;;6248303;23;20148;-65
2022/03/21 03:11:32;;;;;;;13.40;9.18;;;;;;;;;;6248333;23;20167;-65
2022/03/21 03:13:58;;;;;;;14.80;9.07;;;;;;;;;;6247725;23;20565;-65
2022/03/21 03:16:24;;;;;;;16.60;9.07;;;;;;;;;;6247819;23;20456;-64
2022/03/21 03:18:49;;;;;;;17.92;10.02;;;;;;;;;;6247507;23;20164;-64
2022/03/21 03:21:19;;;;;;;14.52;9.25;;;;;;;;;;6226579;23;20149;-64
2022/03/21 03:23:45;;;;;;;15.70;9.60;;;;;;;;;;6230134;23;20219;-64
2022/03/21 03:26:11;;;;;;;12.88;9.30;;;;;;;;;;6250981;23;20219;-64
2022/03/21 03:28:38;;;;;;;14.48;9.32;;;;;;;;;;6247891;23;20502;-64
2022/03/21 03:31:04;;;;;;;13.75;9.38;;;;;;;;;;6256893;23;20140;-64
2022/03/21 03:33:30;;;;;;;15.15;9.38;;;;;;;;;;6254009;23;20150;-65
2022/03/21 03:35:56;;;;;;;13.77;9.02;;;;;;;;;;6253522;23;20144;-64
2022/03/21 03:38:22;;;;;;;17.35;9.65;;;;;;;;;;6248378;23;20171;-64
2022/03/21 03:40:49;;;;;;;16.85;10.20;;;;;;;;;;6249882;23;20447;-64
2022/03/21 03:43:15;;;;;;;16.65;10.35;;;;;;;;;;6251886;23;20140;-64
2022/03/21 03:45:41;;;;;;;17.88;10.25;;;;;;;;;;6257720;23;20216;-64
2022/03/21 03:48:08;;;;;;;16.83;9.68;;;;;;;;;;6256489;23;20147;-65
2022/03/21 03:50:34;;;;;;;15.75;9.15;;;;;;;;;;6249094;23;20540;-65
2022/03/21 03:52:59;;;;;;;15.50;9.77;;;;;;;;;;6248302;23;20147;-65
2022/03/21 03:55:26;;;;;;;17.23;9.50;;;;;;;;;;6248674;23;20163;-65
2022/03/21 03:57:52;;;;;;;17.23;9.73;;;;;;;;;;6247822;23;20467;-64
2022/03/21 04:00:18;;;;;;;17.13;10.07;;;;;;;;;;6247929;23;20215;-65
2022/03/21 04:05:29;;;;;;;15.98;9.45;;;;;;;;;;6248320;23;20143;-62
2022/03/21 04:07:56;;;;;;;16.88;9.50;;;;;;;;;;6248674;23;20232;-62
2022/03/21 04:10:22;;;;;;;16.67;9.70;;;;;;;;;;6247663;23;20144;-62
2022/03/21 04:12:49;;;;;;;16.90;10.10;;;;;;;;;;6247811;23;20155;-62
2022/03/21 04:15:15;;;;;;;17.13;10.18;;;;;;;;;;6248053;23;20141;-62
2022/03/21 04:17:41;;;;;;;17.48;9.95;;;;;;;;;;6247820;23;20172;-62
2022/03/21 04:20:07;;;;;;;18.55;10.23;;;;;;;;;;6247435;23;20171;-63
2022/03/21 04:22:37;;;;;;;16.33;10.00;;;;;;;;;;6247103;23;20153;-62
2022/03/21 04:25:04;;;;;;;16.35;9.43;;;;;;;;;;6247095;23;20124;-62
2022/03/21 04:27:30;;;;;;;18.20;9.60;;;;;;;;;;6247389;23;20245;-63
2022/03/21 04:29:56;;;;;;;15.13;10.27;;;;;;;;;;6247044;23;20556;-63
2022/03/21 04:32:22;;;;;;;16.38;9.85;;;;;;;;;;6247437;23;20144;-63
2022/03/21 04:34:48;;;;;;;17.20;9.90;;;;;;;;;;6247263;23;20148;-63
2022/03/21 04:37:15;;;;;;;15.88;9.45;;;;;;;;;;6247355;23;20527;-62
2022/03/21 04:39:40;;;;;;;18.77;10.38;;;;;;;;;;6247184;23;20147;-62
2022/03/21 04:42:06;;;;;;;16.80;9.90;;;;;;;;;;6248092;23;20140;-62
2022/03/21 04:44:33;;;;;;;19.38;10.70;;;;;;;;;;6247339;23;20136;-62
2022/03/21 04:46:58;;;;;;;15.60;10.18;;;;;;;;;;6247912;23;20147;-62
2022/03/21 04:49:24;;;;;;;17.42;9.95;;;;;;;;;;6247821;23;20144;-62
2022/03/21 04:51:50;;;;;;;16.02;10.25;;;;;;;;;;6246825;23;20219;-62
2022/03/21 04:54:16;;;;;;;15.68;8.93;;;;;;;;;;6246793;23;20172;-63
2022/03/21 04:56:42;;;;;;;17.67;9.93;;;;;;;;;;6246732;23;20560;-62
2022/03/21 04:59:09;;;;;;;19.50;10.60;;;;;;;;;;6246876;23;20253;-62
2022/03/21 05:01:36;;;;;;;17.48;9.90;;;;;;;;;;6246935;23;20144;-62
2022/03/21 05:04:02;;;;;;;17.58;10.02;;;;;;;;;;6247541;23;20152;-63
2022/03/21 05:06:28;;;;;;;16.00;10.55;;;;;;;;;;6246908;23;20198;-62
2022/03/21 05:08:54;;;;;;;14.57;9.68;;;;;;;;;;6246980;23;20569;-62
2022/03/21 05:11:20;;;;;;;18.48;10.27;;;;;;;;;;6246690;23;20206;-61
2022/03/21 05:13:46;;;;;;;18.48;10.65;;;;;;;;;;6220366;23;20152;-62
2022/03/21 05:16:12;;;;;;;15.93;10.07;;;;;;;;;;6246913;23;20175;-61
2022/03/21 05:18:39;;;;;;;16.85;10.23;;;;;;;;;;6246643;23;20243;-62
2022/03/21 05:21:05;;;;;;;19.67;10.32;;;;;;;;;;6246524;23;20623;-62
2022/03/21 05:31:48;;;;;;;20.63;10.95;;;;;;;;;;6246574;23;20151;-62
2022/03/21 05:36:58;;;;;;;18.30;10.40;;;;;;;;;;6246546;23;20202;-62
2022/03/21 05:39:24;;;;;;;18.25;11.15;;;;;;;;;;6246381;23;20148;-62
2022/03/21 05:41:53;;;;;;;13.73;8.85;;;;;;;;;;6246913;23;20482;-62
2022/03/21 05:44:20;;;;;;;17.50;10.50;;;;;;;;;;6246488;23;20136;-62
2022/03/21 05:46:46;;;;;;;15.60;9.85;;;;;;;;;;6246404;23;20140;-62
2022/03/21 05:49:11;;;;;;;16.55;10.35;;;;;;;;;;6246402;23;20140;-62
2022/03/21 05:51:40;;;;;;;20.90;10.50;;;;;;;;;;6219878;23;20202;-62
2022/03/21 05:54:08;;;;;;;17.20;10.00;;;;;;;;;;6246920;23;20144;-62
2022/03/21 05:56:34;;;;;;;15.93;10.25;;;;;;;;;;6247145;23;20212;-62
2022/03/21 06:00:20;;;;;;;14.90;9.95;;;;;;;;;;6246479;23;20229;-62
2022/03/21 06:01:47;;;;;;;16.13;9.65;;;;;;;;;;6246513;23;20152;-62
2022/03/21 06:04:14;;;;;;;18.42;10.10;;;;;;;;;;6246591;23;20565;-62
2022/03/21 06:06:40;;;;;;;20.30;10.65;;;;;;;;;;6246298;23;20140;-62
2022/03/21 06:09:06;;;;;;;18.85;10.27;;;;;;;;;;6246527;23;20176;-62
2022/03/21 06:11:34;;;;;;;16.58;10.27;;;;;;;;;;6247360;23;20552;-62
2022/03/21 06:14:01;;;;;;;19.27;10.95;;;;;;;;;;6248582;23;20219;-62
2022/03/21 06:16:26;;;;;;;17.02;10.00;;;;;;;;;;6221538;23;20152;-62
2022/03/21 06:18:52;;;;;;;13.10;8.68;;;;;;;;;;6248102;23;20168;-62
2022/03/21 06:21:18;;;;;;;16.80;9.38;;;;;;;;;;6248297;23;20147;-62
2022/03/21 06:23:44;;;;;;;18.52;10.98;;;;;;;;;;6248024;23;20156;-62
2022/03/21 06:26:10;;;;;;;19.25;10.02;;;;;;;;;;6248184;23;20144;-62
2022/03/21 06:28:37;;;;;;;13.27;10.23;;;;;;;;;;6248467;23;20485;-61
2022/03/21 06:31:03;;;;;;;16.55;10.88;;;;;;;;;;6248173;23;20148;-63
2022/03/21 06:33:31;;;;;;;16.70;9.93;;;;;;;;;;6247968;23;20151;-63
2022/03/21 06:35:58;;;;;;;23.48;10.48;;;;;;;;;;6247940;23;20168;-62
2022/03/21 06:38:24;;;;;;;16.60;9.70;;;;;;;;;;6248256;23;20496;-62
2022/03/21 06:40:50;;;;;;;16.48;9.80;;;;;;;;;;6247860;23;20214;-63
2022/03/21 06:43:17;;;;;;;14.98;9.45;;;;;;;;;;6248114;23;20194;-63
2022/03/21 06:45:43;;;;;;;16.67;10.65;;;;;;;;;;6247946;23;20438;-63
2022/03/21 06:48:09;;;;;;;14.43;9.75;;;;;;;;;;6247992;23;20140;-63
2022/03/21 06:50:35;;;;;;;15.15;10.15;;;;;;;;;;6247823;23;20185;-62
2022/03/21 06:53:01;;;;;;;17.98;10.60;;;;;;;;;;6247770;23;20141;-63
2022/03/21 06:55:27;;;;;;;16.05;9.77;;;;;;;;;;6248108;23;20136;-61
2022/03/21 06:57:53;;;;;;;17.05;10.20;;;;;;;;;;6221067;23;20187;-62
2022/03/21 07:00:19;;;;;;;16.08;10.40;;;;;;;;;;6248076;23;20619;-61
2022/03/21 07:02:45;;;;;;;17.65;10.00;;;;;;;;;;6247733;23;20211;-62
2022/03/21 07:05:12;;;;;;;16.58;9.68;;;;;;;;;;6247894;23;20143;-63
2022/03/21 07:07:38;;;;;;;14.93;9.85;;;;;;;;;;6248116;23;20235;-63
2022/03/21 07:10:05;;;;;;;15.40;10.15;;;;;;;;;;6247832;23;20184;-63
2022/03/21 07:12:31;;;;;;;15.18;10.43;;;;;;;;;;6248069;23;20141;-63
2022/03/21 07:14:57;;;;;;;15.98;10.75;;;;;;;;;;6248048;23;20179;-63
2022/03/21 07:17:23;;;;;;;16.35;9.85;;;;;;;;;;6247363;23;20218;-63
2022/03/21 07:19:49;;;;;;;17.83;10.40;;;;;;;;;;6247850;23;20145;-63
2022/03/21 07:22:15;;;;;;;16.35;10.45;;;;;;;;;;6247686;23;20227;-65
2022/03/21 07:24:41;;;;;;;19.08;10.45;;;;;;;;;;6247624;23;20143;-65
2022/03/21 07:27:07;;;;;;;17.67;10.25;;;;;;;;;;6247752;23;20150;-64
2022/03/21 07:29:34;;;;;;;15.15;9.80;;;;;;;;;;6247663;23;20436;-64
2022/03/21 07:32:00;;;;;;;14.00;10.10;;;;;;;;;;6248084;23;20155;-64
2022/03/21 07:34:26;;;;;;;16.13;10.20;;;;;;;;;;6255524;23;20482;-65
2022/03/21 07:36:53;;;;;;;16.38;10.63;;;;;;;;;;6247489;23;20147;-64
2022/03/21 07:39:19;;;;;;;15.98;9.85;;;;;;;;;;6247736;23;20172;-64
2022/03/21 07:41:45;;;;;;;13.65;9.20;;;;;;;;;;6247704;23;20136;-64
2022/03/21 07:44:11;;;;;;;14.15;9.80;;;;;;;;;;6247863;23;20137;-65
2022/03/21 07:49:21;;;;;;;14.73;10.27;;;;;;;;;;6247539;23;20147;-66
2022/03/21 07:51:48;;;;;;;15.77;9.73;;;;;;;;;;6247420;23;20144;-66
2022/03/21 07:54:15;;;;;;;16.20;9.70;;;;;;;;;;6247640;23;20144;-65
2022/03/21 07:56:41;;;;;;;14.27;9.43;;;;;;;;;;6247091;23;20544;-65
2022/03/21 07:59:07;;;;;;;13.35;9.60;;;;;;;;;;6247484;23;20179;-66
2022/03/21 08:01:34;;;;;;;14.35;9.88;;;;;;;;;;6247468;23;20141;-65
2022/03/21 08:04:03;;;;;;;16.90;9.70;;;;;;;;;;6247328;23;20140;-63
2022/03/21 08:06:29;;;;;;;15.27;9.80;;;;;;;;;;6247434;23;20404;-64
2022/03/21 08:08:55;;;;;;;14.98;9.90;;;;;;;;;;6247065;23;20499;-64
2022/03/21 08:11:22;;;;;;;12.88;9.00;;;;;;;;;;6247422;23;20145;-64
2022/03/21 08:13:49;;;;;;;11.02;8.52;;;;;;;;;;6247235;23;20148;-64
2022/03/21 08:16:19;;;;;;;12.98;8.68;;;;;;;;;;6246982;23;20140;-64
2022/03/21 08:18:45;;;;;;;14.05;9.10;;;;;;;;;;6247026;23;20654;-64
2022/03/21 08:21:11;;;;;;;13.07;9.30;;;;;;;;;;6247100;23;20137;-64
2022/03/21 08:23:37;;;;;;;15.15;9.02;;;;;;;;;;6246653;23;20184;-64
2022/03/21 08:26:03;;;;;;;12.88;8.70;;;;;;;;;;6247242;23;20140;-64
2022/03/21 08:28:29;;;;;;;13.80;8.38;;;;;;;;;;6247017;23;20223;-62
2022/03/21 08:30:55;;;;;;;12.57;9.18;;;;;;;;;;6246884;23;20168;-63
2022/03/21 08:33:21;;;;;;;12.13;8.40;;;;;;;;;;6246740;23;20180;-64
2022/03/21 08:35:47;;;;;;;13.77;9.10;;;;;;;;;;6246941;23;20189;-64
2022/03/21 08:38:13;;;;;;;18.95;9.15;;;;;;;;;;6247059;23;20606;-64
2022/03/21 08:40:40;;;;;;;14.75;9.20;;;;;;;;;;6247096;23;20164;-64
2022/03/21 08:43:07;;;;;;;12.02;8.82;;;;;;;;;;6247138;23;20568;-63
2022/03/21 08:45:33;;;;;;;11.98;8.35;;;;;;;;;;6247501;23;20148;-63
2022/03/21 08:47:59;;;;;;;11.02;8.30;;;;;;;;;;6247039;23;20431;-63
2022/03/21 08:50:26;;;;;;;11.68;8.55;;;;;;;;;;6247154;23;20297;-63
2022/03/21 08:52:52;;;;;;;16.10;8.27;;;;;;;;;;6247072;23;20511;-63
2022/03/21 08:55:18;;;;;;;12.50;7.63;;;;;;;;;;6247389;23;20300;-63
2022/03/21 08:57:44;;;;;;;14.43;8.75;;;;;;;;;;6247666;23;20195;-63
2022/03/21 09:00:12;;;;;;;11.73;8.35;;;;;;;;;;6249117;23;20164;-63
2022/03/21 09:02:39;;;;;;;10.77;7.65;;;;;;;;;;6246851;23;20631;-63
2022/03/21 09:05:05;;;;;;;11.05;7.38;;;;;;;;;;6247168;23;20144;-63
2022/03/21 09:07:31;;;;;;;13.73;7.82;;;;;;;;;;6247400;23;20148;-64
2022/03/21 09:09:57;;;;;;;9.95;7.45;;;;;;;;;;6247034;23;20144;-64
2022/03/21 09:12:23;;;;;;;11.35;8.23;;;;;;;;;;6246830;23;20173;-63
2022/03/21 09:14:49;;;;;;;10.90;7.65;;;;;;;;;;6246866;23;20150;-65
2022/03/21 09:17:15;;;;;;;9.05;7.28;;;;;;;;;;6246476;23;20168;-63
2022/03/21 09:19:41;;;;;;;9.80;7.90;;;;;;;;;;6246959;23;20136;-64
2022/03/21 09:22:07;;;;;;;11.52;7.80;;;;;;;;;;6246647;23;20136;-64
2022/03/21 09:24:34;;;;;;;11.20;7.80;;;;;;;;;;6246698;23;20147;-64
2022/03/21 09:27:00;;;;;;;10.13;7.35;;;;;;;;;;6247060;23;20435;-64
2022/03/21 09:29:26;;;;;;;10.95;7.47;;;;;;;;;;6246564;23;20219;-64
2022/03/21 09:31:52;;;;;;;10.73;7.38;;;;;;;;;;6246864;23;20235;-62
2022/03/21 09:34:18;;;;;;;11.02;8.13;;;;;;;;;;6246895;23;20144;-62
2022/03/21 09:36:45;;;;;;;8.27;6.72;;;;;;;;;;6246833;23;20211;-63
2022/03/21 09:39:12;;;;;;;15.60;7.72;;;;;;;;;;6246807;23;20171;-64
2022/03/21 09:41:38;;;;;;;11.15;7.65;;;;;;;;;;6246919;23;20231;-63
2022/03/21 09:44:09;;;;;;;11.85;7.57;;;;;;;;;;6246458;23;20567;-63
2022/03/21 09:46:35;;;;;;;11.00;7.57;;;;;;;;;;6248392;23;20475;-63
2022/03/21 09:49:03;;;;;;;10.38;7.30;;;;;;;;;;6248588;23;20439;-63
2022/03/21 09:51:30;;;;;;;8.73;7.03;;;;;;;;;;6248778;23;20168;-63
2022/03/21 09:53:57;;;;;;;10.50;6.40;;;;;;;;;;6248831;23;20180;-63
2022/03/21 09:56:24;;;;;;;8.75;6.38;;;;;;;;;;6248499;23;20151;-63
2022/03/21 09:58:50;;;;;;;8.95;6.43;;;;;;;;;;6248508;23;20179;-63
2022/03/21 10:01:16;;;;;;;10.52;6.68;;;;;;;;;;6248792;23;20202;-63
2022/03/21 10:03:43;;;;;;;10.75;6.07;;;;;;;;;;6248836;23;20235;-63
2022/03/21 10:06:28;;;;;;;9.40;5.90;;;;;;;;;;6248338;23;20565;-63
2022/03/21 10:09:12;;;;;;;7.90;5.57;;;;;;;;;;6248102;23;20572;-63
2022/03/21 10:11:58;;;;;;;8.82;6.40;;;;;;;;;;6248376;23;20218;-64
2022/03/21 10:14:35;;;;;;;8.25;5.95;;;;;;;;;;6247209;23;20136;-63
2022/03/21 10:17:05;;;;;;;11.43;6.30;;;;;;;;;;6246905;23;20136;-63
2022/03/21 10:19:45;;;;;;;6.85;5.57;;;;;;;;;;6248200;23;20150;-63
2022/03/21 10:22:12;;;;;;;8.35;5.57;;;;;;;;;;6248268;23;20218;-63
2022/03/21 10:24:43;;;;;;;8.30;5.90;;;;;;;;;;6248069;23;20132;-64
2022/03/21 10:27:28;;;;;;;7.20;5.90;;;;;;;;;;6248061;23;20140;-64
2022/03/21 10:29:59;;;;;;;8.20;6.05;;;;;;;;;;6246683;23;20151;-63
2022/03/21 10:32:36;;;;;;;8.05;6.20;;;;;;;;;;6247977;23;20128;-63
2022/03/21 10:35:03;;;;;;;8.43;6.10;;;;;;;;;;6248247;23;20129;-64
2022/03/21 10:37:40;;;;;;;8.07;6.13;;;;;;;;;;6247945;23;20178;-65
2022/03/21 10:40:15;;;;;;;10.82;6.20;;;;;;;;;;6247750;23;20129;-64
2022/03/21 10:43:01;;;;;;;10.23;6.13;;;;;;;;;;6247818;23;20147;-64
2022/03/21 10:45:35;;;;;;;7.85;5.57;;;;;;;;;;6247984;23;20218;-64
2022/03/21 10:48:04;;;;;;;8.73;6.25;;;;;;;;;;6219639;23;20434;-65
2022/03/21 10:50:34;;;;;;;10.48;5.80;;;;;;;;;;6247684;23;20326;-64
2022/03/21 10:53:10;;;;;;;9.50;6.47;;;;;;;;;;6248049;23;20190;-63
2022/03/21 10:55:37;;;;;;;8.02;5.82;;;;;;;;;;6248222;23;20139;-63
2022/03/21 10:58:04;;;;;;;8.35;5.97;;;;;;;;;;6247693;23;20670;-64
2022/03/21 11:00:30;;;;;;;7.97;5.63;;;;;;;;;;6248134;23;20242;-65
2022/03/21 11:02:58;;;;;;;7.47;5.63;;;;;;;;;;6247739;23;20147;-64
2022/03/21 11:05:25;;;;;;;8.10;6.13;;;;;;;;;;6247788;23;20136;-64
2022/03/21 11:07:53;;;;;;;8.30;5.30;;;;;;;;;;6248062;23;20238;-64
2022/03/21 11:10:19;;;;;;;7.95;5.78;;;;;;;;;;6248196;23;20223;-64
2022/03/21 11:12:45;;;;;;;6.90;5.85;;;;;;;;;;6247691;23;20168;-64
2022/03/21 11:15:12;;;;;;;8.13;5.13;;;;;;;;;;6221062;23;20148;-63
2022/03/21 11:17:38;;;;;;;11.40;6.00;;;;;;;;;;6247728;23;20480;-63
2022/03/21 11:20:05;;;;;;;8.77;6.47;;;;;;;;;;6247783;23;20140;-63
2022/03/21 11:22:32;;;;;;;10.20;6.13;;;;;;;;;;6247763;23;20156;-62
2022/03/21 11:25:02;;;;;;;8.60;6.60;;;;;;;;;;6247677;22;20620;-63
2022/03/21 11:27:48;;;;;;;8.63;6.32;;;;;;;;;;6247649;23;20155;-63
2022/03/21 11:30:22;;;;;;;7.22;6.00;;;;;;;;;;6247492;23;20159;-63
2022/03/21 11:32:54;;;;;;;6.50;5.15;;;;;;;;;;6247870;23;20576;-63
2022/03/21 11:35:32;;;;;;;9.05;5.70;;;;;;;;;;6248385;23;20129;-62
2022/03/21 11:38:17;;;;;;;7.47;5.45;;;;;;;;;;6250410;23;20218;-62
2022/03/21 11:40:43;;;;;;;9.10;5.30;;;;;;;;;;6251345;23;20171;-62
2022/03/21 11:43:18;;;;;;;8.18;5.80;;;;;;;;;;6251795;23;20136;-62
2022/03/21 11:45:45;;;;;;;7.28;5.45;;;;;;;;;;6251742;23;20151;-62
2022/03/21 11:48:22;;;;;;;9.68;6.05;;;;;;;;;;6251834;23;20167;-62
2022/03/21 11:50:50;;;;;;;7.03;5.20;;;;;;;;;;6250679;23;20159;-62
2022/03/21 11:53:16;;;;;;;7.70;5.25;;;;;;;;;;6250989;23;20140;-62
2022/03/21 11:55:46;;;;;;;6.57;5.32;;;;;;;;;;6251100;23;20140;-62
2022/03/21 11:58:31;;;;;;;7.55;5.82;;;;;;;;;;6251339;23;20164;-62
2022/03/21 12:01:02;;;;;;;6.45;5.20;;;;;;;;;;6251491;23;20195;-62
2022/03/21 12:03:28;;;;;;;8.90;5.55;;;;;;;;;;6251229;23;20148;-62
2022/03/21 12:05:54;;;;;;;6.70;5.43;;;;;;;;;;6251436;23;20219;-61
2022/03/21 12:08:30;;;;;;;7.65;5.35;;;;;;;;;;6250936;23;20508;-62
2022/03/21 12:10:56;;;;;;;8.20;5.72;;;;;;;;;;6251299;23;20128;-62
2022/03/21 12:13:22;;;;;;;7.30;5.55;;;;;;;;;;6251100;23;20146;-61
2022/03/21 12:15:52;;;;;;;7.65;5.80;;;;;;;;;;6251465;23;20209;-62
2022/03/21 12:18:21;;;;;;;7.05;5.57;;;;;;;;;;6252341;23;20176;-62
2022/03/21 12:20:49;;;;;;;7.75;6.00;;;;;;;;;;6252090;23;20251;-62
2022/03/21 12:23:17;;;;;;;7.45;5.75;;;;;;;;;;6252407;23;20190;-62
2022/03/21 12:25:45;;;;;;;8.73;6.22;;;;;;;;;;6251291;23;20140;-62
2022/03/21 12:31:31;;;;;;;8.50;5.63;;;;;;;;;;6249931;23;20571;-62
2022/03/21 12:34:15;;;;;;;7.43;6.07;;;;;;;;;;6248447;23;20148;-63
2022/03/21 12:36:41;;;;;;;6.50;5.32;;;;;;;;;;6248488;23;20155;-62
2022/03/21 12:39:17;;;;;;;6.47;5.10;;;;;;;;;;6249000;23;20163;-61
2022/03/21 12:41:45;;;;;;;7.03;5.68;;;;;;;;;;6247642;23;20595;-62
2022/03/21 12:44:13;;;;;;;8.82;5.82;;;;;;;;;;6247831;23;20171;-62
2022/03/21 12:46:39;;;;;;;7.93;6.03;;;;;;;;;;6248007;23;20140;-62
2022/03/21 12:49:05;;;;;;;6.95;5.70;;;;;;;;;;6248039;23;20150;-62
2022/03/21 12:51:35;;;;;;;8.20;5.38;;;;;;;;;;6248456;23;20219;-61
2022/03/21 12:54:02;;;;;;;6.65;5.20;;;;;;;;;;6250250;23;20545;-63
2022/03/21 12:56:29;;;;;;;7.38;6.05;;;;;;;;;;6249312;23;20444;-61
2022/03/21 12:58:59;;;;;;;6.18;5.45;;;;;;;;;;6249562;23;20172;-62
2022/03/21 13:01:26;;;;;;;7.80;5.63;;;;;;;;;;6249611;23;20147;-62
2022/03/21 13:10:32;;;;;;;7.50;6.30;;;;;;;;;;6248484;23;20160;-62
2022/03/21 13:12:27;;;;;;;8.40;5.53;;;;;;;;;;6248710;23;20190;-62
2022/03/21 13:15:00;;;;;;;7.10;5.63;;;;;;;;;;6248342;23;20144;-62
2022/03/21 13:17:42;;;;;;;8.18;6.15;;;;;;;;;;6248648;23;20160;-63
2022/03/21 13:20:09;;;;;;;8.55;6.53;;;;;;;;;;6248131;23;20156;-62
2022/03/21 13:22:35;;;;;;;8.20;6.05;;;;;;;;;;6248100;23;20179;-62
2022/03/21 13:25:01;;;;;;;8.50;6.18;;;;;;;;;;6247960;23;20155;-62
2022/03/21 13:27:33;;;;;;;7.63;5.85;;;;;;;;;;6247662;23;20540;-62
2022/03/21 13:29:59;;;;;;;7.20;6.07;;;;;;;;;;6247683;23;20203;-61
2022/03/21 13:32:25;;;;;;;9.00;5.93;;;;;;;;;;6249043;23;20147;-62
2022/03/21 13:34:52;;;;;;;8.52;6.32;;;;;;;;;;6249119;23;20179;-62
2022/03/21 13:37:21;;;;;;;7.93;6.00;;;;;;;;;;6248758;23;20144;-62
2022/03/21 13:40:04;;;;;;;7.50;5.88;;;;;;;;;;6249560;23;20151;-62
2022/03/21 13:42:33;;;;;;;7.18;5.93;;;;;;;;;;6249459;23;20147;-62
2022/03/21 13:45:03;;;;;;;10.90;6.18;;;;;;;;;;6248628;23;20179;-61
2022/03/21 13:47:29;;;;;;;7.82;6.20;;;;;;;;;;6247988;23;20148;-61
2022/03/21 13:49:55;;;;;;;8.02;6.38;;;;;;;;;;6247374;23;20145;-61
2022/03/21 13:52:41;;;;;;;8.07;6.13;;;;;;;;;;6247686;23;20171;-62
2022/03/21 13:55:07;;;;;;;9.25;6.20;;;;;;;;;;6249517;23;20144;-62
2022/03/21 13:57:53;;;;;;;9.05;5.93;;;;;;;;;;6250013;23;20168;-62
2022/03/21 14:00:27;;;;;;;8.05;6.30;;;;;;;;;;6249210;23;20282;-62
2022/03/21 14:02:54;;;;;;;8.13;6.30;;;;;;;;;;6248603;23;20262;-61
2022/03/21 14:05:27;;;;;;;8.68;6.53;;;;;;;;;;6247465;23;20634;-61
2022/03/21 14:08:08;;;;;;;13.65;6.55;;;;;;;;;;6247161;23;20139;-63
2022/03/21 14:10:40;;;;;;;7.35;6.32;;;;;;;;;;6247683;23;20125;-62
2022/03/21 14:13:12;;;;;;;8.77;6.20;;;;;;;;;;6250779;23;20128;-62
2022/03/21 14:15:38;;;;;;;8.70;7.03;;;;;;;;;;6251011;23;20129;-62
2022/03/21 14:18:05;;;;;;;9.23;6.57;;;;;;;;;;6251923;23;20179;-62
2022/03/21 14:20:31;;;;;;;10.27;6.03;;;;;;;;;;6264685;23;20140;-62
2022/03/21 14:22:57;;;;;;;7.85;6.50;;;;;;;;;;6264257;23;20223;-62
2022/03/21 14:28:08;;;;;;;6.95;6.00;;;;;;;;;;6264194;23;20143;-62
2022/03/21 14:30:36;;;;;;;8.43;6.45;;;;;;;;;;6255683;23;20148;-62
2022/03/21 14:33:02;;;;;;;8.50;6.00;;;;;;;;;;6247716;23;20155;-62
2022/03/21 14:35:28;;;;;;;9.05;6.30;;;;;;;;;;6248094;23;20155;-62
2022/03/21 14:37:54;;;;;;;8.32;6.30;;;;;;;;;;6248221;23;20164;-62
2022/03/21 14:40:20;;;;;;;7.85;7.05;;;;;;;;;;6248665;23;20149;-62
2022/03/21 14:42:46;;;;;;;11.02;7.28;;;;;;;;;;6248349;23;20141;-62
2022/03/21 14:45:12;;;;;;;8.40;6.85;;;;;;;;;;6247847;23;20195;-62
2022/03/21 14:47:38;;;;;;;7.47;6.00;;;;;;;;;;6248145;23;20144;-61
2022/03/21 14:50:05;;;;;;;7.15;6.32;;;;;;;;;;6247939;23;20179;-61
2022/03/21 14:52:31;;;;;;;8.15;6.60;;;;;;;;;;6248215;23;20227;-61
2022/03/21 14:54:57;;;;;;;7.78;6.13;;;;;;;;;;6248292;23;20533;-62
2022/03/21 14:57:23;;;;;;;7.85;5.88;;;;;;;;;;6247813;23;20140;-61
2022/03/21 14:59:51;;;;;;;8.20;6.25;;;;;;;;;;6248484;23;20141;-61
2022/03/21 15:02:16;;;;;;;7.22;6.18;;;;;;;;;;6248061;23;20183;-64
2022/03/21 15:04:42;;;;;;;7.88;6.75;;;;;;;;;;6248147;23;20136;-64